Time;durP1;ratioP1;P1;durP2;ratioP2;P2;SDS_P1;SDS_P2;PMS_P1;PMS_P2;Temp;Humidity;BMP_temperature;BMP_pressure;BME280_temperature;BME280_humidity;BME280_pressure;Samples;Min_cycle;Max_cycle;Signal;HPM_P1;HPM_P2
2022/11/29 00:01:25;;;;;;;39.63;15.18;;;;;;;0.08;84.22;99709.14;1624825;87;21524;-77
2022/11/29 00:03:53;;;;;;;40.65;14.65;;;;;;;0.04;84.79;99709.50;1615386;87;21062;-78
2022/11/29 00:06:27;;;;;;;42.85;14.07;;;;;;;0.03;84.46;99709.03;1624909;87;21030;-77
2022/11/29 00:08:58;;;;;;;35.43;14.53;;;;;;;-0.09;85.61;99703.17;1625924;87;21019;-77
2022/11/29 00:14:17;;;;;;;44.20;14.18;;;;;;;-0.15;86.22;99705.98;1614500;87;21063;-77
2022/11/29 00:16:47;;;;;;;32.42;12.20;;;;;;;-0.15;86.36;99702.14;1613174;87;21859;-77
2022/11/29 00:19:14;;;;;;;39.55;13.60;;;;;;;-0.16;86.71;99704.23;1665402;85;21019;-77
2022/11/29 00:21:41;;;;;;;31.95;12.60;;;;;;;-0.14;86.81;99714.08;1645243;86;20994;-77
2022/11/29 00:24:09;;;;;;;33.05;13.08;;;;;;;-0.17;86.31;99707.20;1663868;85;20984;-78
2022/11/29 00:26:37;;;;;;;40.58;14.43;;;;;;;-0.18;87.75;99704.18;1664866;85;20995;-77
2022/11/29 00:29:05;;;;;;;35.17;13.98;;;;;;;-0.18;86.44;99696.94;1664236;84;21086;-77
2022/11/29 00:31:33;;;;;;;31.87;14.28;;;;;;;-0.21;86.89;99698.58;1667800;84;21050;-77
2022/11/29 00:34:05;;;;;;;36.00;14.00;;;;;;;-0.24;87.40;99693.79;1680845;84;21061;-77
2022/11/29 00:36:34;;;;;;;37.75;13.45;;;;;;;-0.31;87.56;99685.09;1680794;84;21018;-76
2022/11/29 00:39:03;;;;;;;36.25;14.55;;;;;;;-0.33;88.10;99685.89;1681023;84;21073;-77
2022/11/29 00:41:32;;;;;;;41.40;15.50;;;;;;;-0.32;87.26;99683.38;1683553;84;21014;-78
2022/11/29 00:43:59;;;;;;;35.52;13.35;;;;;;;-0.34;86.99;99684.14;1681945;84;21070;-77
2022/11/29 00:46:27;;;;;;;30.95;13.20;;;;;;;-0.39;86.85;99684.02;1683115;84;21026;-77
2022/11/29 00:48:55;;;;;;;43.45;14.55;;;;;;;-0.41;87.52;99691.63;1682288;84;21112;-77
2022/11/29 00:51:22;;;;;;;34.43;13.62;;;;;;;-0.41;87.73;99683.97;1682913;84;21010;-77
2022/11/29 00:53:50;;;;;;;31.97;12.85;;;;;;;-0.38;87.80;99692.12;1682266;84;21050;-77
2022/11/29 00:56:17;;;;;;;32.08;13.85;;;;;;;-0.37;87.65;99684.93;1682687;84;20998;-77
2022/11/29 00:58:47;;;;;;;40.70;13.78;;;;;;;-0.37;87.75;99687.91;1682171;84;21582;-77
2022/11/29 01:01:15;;;;;;;30.32;12.13;;;;;;;-0.39;86.94;99685.72;1682398;84;20974;-78
2022/11/29 01:03:42;;;;;;;35.45;13.55;;;;;;;-0.40;86.84;99683.55;1681948;84;21046;-77
2022/11/29 01:06:14;;;;;;;29.50;12.53;;;;;;;-0.41;86.89;99690.36;1682159;84;21811;-77
2022/11/29 01:08:42;;;;;;;27.42;11.25;;;;;;;-0.41;86.99;99697.16;1671608;84;21026;-77
2022/11/29 01:11:17;;;;;;;29.50;11.60;;;;;;;-0.45;86.82;99696.20;1681801;84;21585;-77
2022/11/29 01:13:45;;;;;;;30.27;11.55;;;;;;;-0.44;87.06;99691.56;1682930;84;20983;-77
2022/11/29 01:16:15;;;;;;;32.20;12.00;;;;;;;-0.47;86.99;99691.47;1682087;84;21078;-78
2022/11/29 01:18:43;;;;;;;31.73;11.75;;;;;;;-0.48;86.96;99696.13;1682686;84;21005;-77
2022/11/29 01:21:14;;;;;;;28.12;10.82;;;;;;;-0.52;86.90;99689.17;1681231;84;21062;-77
2022/11/29 01:23:44;;;;;;;22.07;10.40;;;;;;;-0.58;87.19;99681.76;1680175;84;20997;-76
2022/11/29 01:26:15;;;;;;;25.37;10.48;;;;;;;-0.53;86.70;99691.71;1682953;84;20995;-77
2022/11/29 01:28:46;;;;;;;22.82;10.43;;;;;;;-0.58;86.81;99691.97;1623765;87;21578;-77
2022/11/29 01:31:18;;;;;;;38.88;11.45;;;;;;;-0.56;87.14;99696.30;1635573;86;20963;-77
2022/11/29 01:33:45;;;;;;;26.27;10.65;;;;;;;-0.53;86.73;99696.40;1636359;86;21060;-77
2022/11/29 01:36:14;;;;;;;25.80;11.50;;;;;;;-0.52;86.95;99704.92;1613596;87;21068;-77
2022/11/29 01:38:41;;;;;;;36.08;13.60;;;;;;;-0.53;86.92;99704.48;1636704;86;21016;-77
2022/11/29 01:41:16;;;;;;;34.98;13.18;;;;;;;-0.52;87.15;99704.50;1633754;86;21078;-77
2022/11/29 01:44:04;;;;;;;34.13;12.88;;;;;;;-0.50;87.03;99699.44;1635555;86;21044;-77
2022/11/29 01:46:36;;;;;;;31.62;11.45;;;;;;;-0.51;87.17;99697.73;1624440;86;21043;-77
2022/11/29 01:49:16;;;;;;;29.50;10.45;;;;;;;-0.50;86.66;99707.11;1636188;86;21024;-77
2022/11/29 01:52:01;;;;;;;22.48;10.05;;;;;;;-0.53;86.98;99707.03;1634628;86;21042;-77
2022/11/29 01:54:31;;;;;;;25.32;10.20;;;;;;;-0.50;87.51;99695.19;1636060;86;21040;-77
2022/11/29 01:57:01;;;;;;;28.32;11.45;;;;;;;-0.43;87.75;99696.25;1616392;87;21032;-78
2022/11/29 01:59:29;;;;;;;27.50;11.55;;;;;;;-0.44;86.89;99697.06;1635877;86;21108;-78
2022/11/29 02:02:05;;;;;;;25.62;11.18;;;;;;;-0.45;87.01;99697.48;1634904;86;21054;-77
2022/11/29 02:04:35;;;;;;;32.67;12.80;;;;;;;-0.46;86.73;99694.48;1633787;86;21079;-77
2022/11/29 02:07:04;;;;;;;23.18;10.43;;;;;;;-0.50;86.67;99692.64;1637160;86;21779;-77
2022/11/29 02:09:31;;;;;;;33.60;12.05;;;;;;;-0.54;87.00;99696.34;1610112;87;21503;-77
2022/11/29 02:12:36;;;;;;;29.67;11.55;;;;;;;-0.54;87.09;99698.90;1609566;87;21966;-77
2022/11/29 02:15:09;;;;;;;29.57;12.07;;;;;;;-0.52;86.93;99701.09;1634721;86;21072;-76
2022/11/29 02:18:16;;;;;;;27.87;12.25;;;;;;;-0.56;86.63;99700.12;1635233;86;21678;-76
2022/11/29 02:20:52;;;;;;;42.67;12.55;;;;;;;-0.63;86.91;99700.37;1609066;87;21096;-77
2022/11/29 02:23:31;;;;;;;28.07;10.95;;;;;;;-0.62;87.11;99691.90;1609202;87;21872;-77
2022/11/29 02:26:22;;;;;;;31.48;12.55;;;;;;;-0.61;87.24;99693.62;1636578;86;21523;-78
2022/11/29 02:29:31;;;;;;;31.73;12.05;;;;;;;-0.59;87.52;99687.28;1601643;88;21005;-77
2022/11/29 02:32:25;;;;;;;32.38;13.03;;;;;;;-0.59;87.29;99688.56;1636371;86;21020;-77
2022/11/29 02:35:33;;;;;;;32.10;12.23;;;;;;;-0.61;87.04;99689.78;1607769;87;21532;-77
2022/11/29 02:38:34;;;;;;;31.33;11.73;;;;;;;-0.69;86.86;99694.22;1611752;87;21011;-77
2022/11/29 02:41:42;;;;;;;27.73;10.60;;;;;;;-0.76;86.95;99693.58;1610338;87;21074;-77
2022/11/29 02:44:23;;;;;;;29.10;11.90;;;;;;;-0.78;86.94;99701.18;1631136;86;20988;-77
2022/11/29 02:47:08;;;;;;;26.23;11.33;;;;;;;-0.79;87.34;99698.19;1636975;86;21567;-77
2022/11/29 02:49:53;;;;;;;27.27;10.10;;;;;;;-0.79;86.76;99700.74;1634711;86;21055;-77
2022/11/29 02:52:45;;;;;;;31.85;10.95;;;;;;;-0.87;86.72;99696.67;1611371;87;21026;-77
2022/11/29 02:55:44;;;;;;;26.35;10.40;;;;;;;-0.94;87.54;99693.47;1611446;87;21008;-77
2022/11/29 02:58:40;;;;;;;28.15;10.65;;;;;;;-0.95;87.34;99700.69;1637789;86;21015;-77
2022/11/29 03:01:15;;;;;;;25.02;10.43;;;;;;;-0.95;87.31;99700.69;1636667;86;21524;-76
2022/11/29 03:04:01;;;;;;;29.10;11.22;;;;;;;-1.01;87.18;99704.33;1611729;87;21087;-77
2022/11/29 03:07:05;;;;;;;26.68;11.18;;;;;;;-1.05;86.89;99707.19;1612982;87;21067;-77
2022/11/29 03:10:03;;;;;;;33.28;12.25;;;;;;;-1.10;87.01;99704.03;1608629;87;21582;-77
2022/11/29 03:12:39;;;;;;;30.40;12.28;;;;;;;-1.15;87.45;99712.83;1598823;87;21096;-77
2022/11/29 03:15:24;;;;;;;35.33;12.73;;;;;;;-1.16;87.57;99705.97;1606343;87;21020;-77
2022/11/29 03:18:09;;;;;;;31.37;13.40;;;;;;;-1.16;88.36;99707.66;1593529;88;21555;-76
2022/11/29 03:20:51;;;;;;;31.82;12.60;;;;;;;-1.15;88.24;99708.10;1604184;88;21063;-78
2022/11/29 03:23:27;;;;;;;31.77;13.35;;;;;;;-1.21;88.50;99702.01;1637601;86;21092;-77
2022/11/29 03:26:00;;;;;;;31.80;12.68;;;;;;;-1.16;87.97;99712.34;1635933;86;21039;-77
2022/11/29 03:29:00;;;;;;;33.83;13.13;;;;;;;-1.18;88.29;99715.27;1636620;86;21608;-78
2022/11/29 03:31:34;;;;;;;41.45;14.93;;;;;;;-1.18;87.89;99710.58;1611797;87;21179;-77
2022/11/29 03:34:28;;;;;;;41.23;15.05;;;;;;;-1.22;88.07;99716.84;1617501;87;20994;-77
2022/11/29 03:37:19;;;;;;;30.15;10.53;;;;;;;-1.26;88.14;99720.53;1653884;85;21062;-77
2022/11/29 03:40:10;;;;;;;31.42;11.75;;;;;;;-1.30;88.41;99727.21;1614490;87;21057;-77
2022/11/29 03:43:09;;;;;;;29.87;11.80;;;;;;;-1.30;89.00;99723.39;1615791;87;21422;-76
2022/11/29 03:45:54;;;;;;;40.80;14.25;;;;;;;-1.30;88.48;99721.25;1657979;85;21098;-77
2022/11/29 03:48:30;;;;;;;30.77;12.63;;;;;;;-1.30;89.21;99724.66;1616753;87;21050;-76
2022/11/29 03:51:12;;;;;;;39.08;13.98;;;;;;;-1.30;89.27;99718.28;1652290;85;21036;-76
2022/11/29 03:53:48;;;;;;;31.85;13.18;;;;;;;-1.26;89.78;99719.26;1650834;85;21039;-77
2022/11/29 03:56:36;;;;;;;43.08;14.58;;;;;;;-1.21;89.88;99712.22;1616861;87;21097;-77
2022/11/29 03:59:28;;;;;;;32.08;13.62;;;;;;;-1.24;90.31;99713.80;1649752;85;21067;-77
2022/11/29 04:02:30;;;;;;;36.50;12.88;;;;;;;-1.24;89.76;99712.52;1665020;85;22178;-77
2022/11/29 04:05:19;;;;;;;34.43;13.10;;;;;;;-1.22;89.67;99719.81;1662691;85;21082;-76
2022/11/29 04:08:06;;;;;;;37.13;12.30;;;;;;;-1.20;89.72;99714.34;1665364;85;21023;-77
2022/11/29 04:11:08;;;;;;;37.50;13.78;;;;;;;-1.16;89.72;99728.94;1658011;85;21540;-77
2022/11/29 04:14:22;;;;;;;27.50;12.47;;;;;;;-1.15;88.89;99720.86;1653668;85;21079;-77
2022/11/29 04:17:04;;;;;;;33.63;12.82;;;;;;;-1.20;89.15;99716.90;1656763;85;21071;-76
2022/11/29 04:19:53;;;;;;;31.77;12.30;;;;;;;-1.15;89.26;99719.59;1639636;86;21774;-77
2022/11/29 04:22:35;;;;;;;38.28;13.53;;;;;;;-1.16;89.22;99720.00;1658097;85;21043;-77
2022/11/29 04:25:14;;;;;;;36.80;13.48;;;;;;;-1.14;89.64;99722.19;1654047;85;21047;-77
2022/11/29 04:28:10;;;;;;;30.92;11.55;;;;;;;-1.09;89.81;99724.50;1658358;85;22373;-78
2022/11/29 04:31:01;;;;;;;36.88;12.65;;;;;;;-1.08;90.04;99721.53;1599213;85;21113;-77
2022/11/29 04:33:40;;;;;;;30.48;12.60;;;;;;;-1.06;90.06;99720.75;1622096;87;21106;-77
2022/11/29 04:36:31;;;;;;;25.92;11.15;;;;;;;-1.11;89.96;99710.83;1615231;87;21357;-77
2022/11/29 04:39:13;;;;;;;34.63;12.63;;;;;;;-1.04;89.75;99719.11;1659628;85;21054;-76
2022/11/29 04:41:55;;;;;;;27.30;10.45;;;;;;;-1.03;90.01;99725.96;1615146;84;21541;-77
2022/11/29 04:44:45;;;;;;;28.90;13.00;;;;;;;-1.01;89.62;99723.05;1663635;84;21106;-77
2022/11/29 04:47:30;;;;;;;32.17;12.75;;;;;;;-1.02;89.45;99726.41;1680368;84;21038;-77
2022/11/29 04:50:26;;;;;;;36.15;15.38;;;;;;;-1.00;89.26;99732.42;1680257;84;21049;-77
2022/11/29 04:53:40;;;;;;;44.60;14.18;;;;;;;-1.02;89.28;99723.85;1680525;84;21601;-76
2022/11/29 04:56:19;;;;;;;48.00;18.35;;;;;;;-1.02;88.97;99734.48;1626185;84;21633;-76
2022/11/29 04:58:58;;;;;;;37.45;14.18;;;;;;;-1.18;89.07;99730.98;1681148;84;21719;-76
2022/11/29 05:02:01;;;;;;;36.68;13.55;;;;;;;-1.20;88.75;99737.31;1679926;84;21070;-77
2022/11/29 05:04:52;;;;;;;42.75;16.12;;;;;;;-1.28;88.94;99742.16;1681508;84;21088;-77
2022/11/29 05:07:51;;;;;;;44.40;15.78;;;;;;;-1.30;89.06;99742.94;1679310;84;21085;-77
2022/11/29 05:11:03;;;;;;;44.30;15.75;;;;;;;-1.34;88.78;99742.37;1679801;84;21025;-77
2022/11/29 05:13:55;;;;;;;40.52;14.73;;;;;;;-1.41;88.90;99756.20;1623624;86;21081;-77
2022/11/29 05:17:00;;;;;;;30.65;13.72;;;;;;;-1.45;88.62;99756.92;1630536;86;21045;-77
2022/11/29 05:19:46;;;;;;;46.68;16.27;;;;;;;-1.47;88.78;99750.91;1665548;84;21077;-77
2022/11/29 05:22:56;;;;;;;42.05;14.65;;;;;;;-1.49;89.29;99757.64;1680235;84;21307;-76
2022/11/29 05:25:41;;;;;;;31.33;13.65;;;;;;;-1.48;88.96;99761.91;1682056;84;21589;-77
2022/11/29 05:28:19;;;;;;;44.48;18.73;;;;;;;-1.52;88.82;99754.97;1651422;84;28405;-78
2022/11/29 05:31:07;;;;;;;43.48;16.45;;;;;;;-1.45;89.01;99754.79;1681787;84;21006;-77
2022/11/29 05:34:12;;;;;;;34.65;13.75;;;;;;;-1.47;89.26;99752.59;1675184;84;20967;-77
2022/11/29 05:36:54;;;;;;;32.58;12.95;;;;;;;-1.47;89.49;99753.45;1675404;84;21002;-77
2022/11/29 05:39:36;;;;;;;40.75;14.68;;;;;;;-1.43;89.27;99756.56;1629603;84;21086;-77
2022/11/29 05:42:30;;;;;;;45.63;15.00;;;;;;;-1.46;89.46;99760.27;1671621;84;21002;-77
2022/11/29 05:45:25;;;;;;;40.23;16.37;;;;;;;-1.43;89.39;99767.19;1659922;84;21062;-77
2022/11/29 05:48:10;;;;;;;39.63;15.70;;;;;;;-1.35;89.37;99762.31;1676540;84;20997;-77
2022/11/29 05:50:43;;;;;;;40.38;17.30;;;;;;;-1.35;89.36;99766.14;1678390;84;21063;-77
2022/11/29 05:53:28;;;;;;;44.85;17.52;;;;;;;-1.34;89.08;99767.89;1673389;84;20986;-77
2022/11/29 05:56:10;;;;;;;45.52;19.27;;;;;;;-1.36;89.27;99771.66;1669558;84;21018;-76
2022/11/29 05:58:59;;;;;;;48.50;18.55;;;;;;;-1.33;89.65;99770.50;1666166;84;21169;-77
2022/11/29 06:01:32;;;;;;;42.58;16.97;;;;;;;-1.29;89.72;99781.26;1674810;84;21049;-76
2022/11/29 06:04:38;;;;;;;41.42;16.25;;;;;;;-1.24;89.75;99786.09;1675168;84;21138;-77
2022/11/29 06:07:44;;;;;;;54.18;20.82;;;;;;;-1.17;89.56;99787.56;1675098;84;21094;-77
2022/11/29 06:10:18;;;;;;;54.05;20.60;;;;;;;-1.11;89.47;99783.55;1670674;84;21066;-77
2022/11/29 06:13:27;;;;;;;69.53;23.95;;;;;;;-1.06;88.85;99777.31;1675434;84;21495;-77
2022/11/29 06:16:29;;;;;;;55.17;19.85;;;;;;;-1.06;88.71;99779.45;1661523;84;21106;-77
2022/11/29 06:19:07;;;;;;;41.92;16.82;;;;;;;-1.06;88.51;99783.27;1675876;84;21045;-77
2022/11/29 06:21:47;;;;;;;47.20;17.17;;;;;;;-1.11;88.27;99784.83;1660182;84;21518;-77
2022/11/29 06:24:41;;;;;;;40.08;16.17;;;;;;;-1.11;88.46;99783.55;1669063;84;20979;-77
2022/11/29 06:27:41;;;;;;;35.98;15.00;;;;;;;-1.11;88.45;99791.20;1674794;84;21018;-77
2022/11/29 06:30:13;;;;;;;37.45;16.40;;;;;;;-1.13;88.64;99783.91;1664152;84;21015;-77
2022/11/29 06:32:53;;;;;;;40.60;16.60;;;;;;;-1.11;88.73;99787.37;1674979;84;21105;-77
2022/11/29 06:35:47;;;;;;;37.53;17.00;;;;;;;-1.07;88.97;99787.08;1667109;84;21022;-77
2022/11/29 06:38:28;;;;;;;48.05;17.30;;;;;;;-1.11;88.80;99784.83;1678821;84;21030;-77
2022/11/29 06:40:58;;;;;;;43.75;17.50;;;;;;;-1.09;88.81;99787.44;1678030;84;21026;-77
2022/11/29 06:43:26;;;;;;;40.33;16.93;;;;;;;-1.07;89.15;99789.63;1675520;84;21010;-77
2022/11/29 06:46:04;;;;;;;48.28;18.15;;;;;;;-1.01;89.13;99792.38;1669135;84;21078;-78
2022/11/29 06:48:40;;;;;;;37.70;15.15;;;;;;;-1.00;89.20;99796.65;1674500;84;21066;-76
2022/11/29 06:51:13;;;;;;;35.95;15.10;;;;;;;-0.96;89.12;99797.20;1676399;84;21193;-77
2022/11/29 06:53:55;;;;;;;38.75;15.80;;;;;;;-0.98;89.47;99783.95;1685330;84;21597;-77
2022/11/29 06:56:53;;;;;;;42.15;16.27;;;;;;;-0.95;89.53;99781.09;1676164;84;21110;-77
2022/11/29 06:59:48;;;;;;;40.30;16.30;;;;;;;-0.88;89.71;99784.69;1676894;84;21141;-77
2022/11/29 07:02:38;;;;;;;41.92;14.78;;;;;;;-0.86;89.76;99793.27;1659384;84;21013;-78
2022/11/29 07:05:30;;;;;;;36.48;13.62;;;;;;;-0.75;89.63;99792.34;1675576;84;21125;-77
2022/11/29 07:08:19;;;;;;;39.27;15.60;;;;;;;-0.70;89.98;99786.95;1655344;84;21091;-77
2022/11/29 07:10:51;;;;;;;38.48;15.10;;;;;;;-0.63;89.65;99771.87;1683259;84;21049;-77
2022/11/29 07:13:20;;;;;;;33.78;13.70;;;;;;;-0.56;89.66;99774.19;1673621;84;21002;-78
2022/11/29 07:15:59;;;;;;;38.60;15.20;;;;;;;-0.48;89.58;99784.64;1677706;84;21065;-77
2022/11/29 07:18:57;;;;;;;41.55;16.57;;;;;;;-0.43;89.43;99786.52;1686139;84;20985;-77
2022/11/29 07:21:33;;;;;;;40.33;14.33;;;;;;;-0.41;89.33;99789.13;1680240;84;21006;-77
2022/11/29 07:24:20;;;;;;;30.08;13.75;;;;;;;-0.33;89.27;99797.03;1677994;84;21032;-77
2022/11/29 07:27:14;;;;;;;64.30;22.27;;;;;;;-0.30;89.28;99791.61;1684854;84;21138;-78
2022/11/29 07:30:03;;;;;;;45.48;17.30;;;;;;;-0.23;89.10;99782.00;1678291;84;21098;-77
2022/11/29 07:32:57;;;;;;;30.72;14.55;;;;;;;-0.17;89.04;99778.77;1677904;84;21089;-78
2022/11/29 07:35:36;;;;;;;36.17;14.23;;;;;;;-0.12;89.13;99770.83;1682243;83;21081;-77
2022/11/29 07:38:09;;;;;;;31.80;14.05;;;;;;;-0.06;89.11;99774.84;1682227;84;21014;-77
2022/11/29 07:41:12;;;;;;;27.62;12.50;;;;;;;-0.01;89.06;99778.80;1690235;84;22302;-77
2022/11/29 07:43:54;;;;;;;34.98;13.18;;;;;;;0.05;89.25;99770.02;1672975;84;21061;-78
2022/11/29 07:46:22;;;;;;;35.13;13.28;;;;;;;0.17;89.14;99771.63;1678851;84;21042;-77
2022/11/29 07:48:50;;;;;;;37.55;13.68;;;;;;;0.23;89.12;99772.63;1677520;84;21074;-77
2022/11/29 07:51:18;;;;;;;36.98;13.45;;;;;;;0.28;89.08;99765.55;1673525;84;21065;-77
2022/11/29 07:53:46;;;;;;;36.65;13.83;;;;;;;0.35;88.97;99765.28;1675377;84;21022;-77
2022/11/29 07:56:15;;;;;;;34.33;13.20;;;;;;;0.41;88.87;99771.84;1667520;84;21318;-78
2022/11/29 07:58:42;;;;;;;34.53;14.47;;;;;;;0.46;88.87;99775.40;1661310;84;21100;-77
2022/11/29 08:01:10;;;;;;;36.15;14.38;;;;;;;0.54;89.00;99772.63;1669359;84;21039;-77
2022/11/29 08:03:40;;;;;;;32.55;14.07;;;;;;;0.62;88.61;99768.09;1643273;84;21479;-77
2022/11/29 08:06:08;;;;;;;33.38;14.13;;;;;;;0.68;88.86;99770.84;1660943;84;21562;-77
2022/11/29 08:08:35;;;;;;;36.58;16.67;;;;;;;0.76;88.74;99774.04;1615727;87;21396;-77
2022/11/29 08:11:09;;;;;;;39.20;15.53;;;;;;;0.82;88.51;99774.61;1623818;87;21325;-77
2022/11/29 08:13:37;;;;;;;31.70;13.38;;;;;;;0.83;88.37;99776.33;1620861;87;21051;-77
2022/11/29 08:16:05;;;;;;;39.58;16.07;;;;;;;0.88;88.33;99779.02;1613077;87;21067;-77
2022/11/29 08:18:35;;;;;;;32.73;13.83;;;;;;;0.94;88.38;99783.87;1623725;87;21349;-77
2022/11/29 08:21:07;;;;;;;47.62;14.87;;;;;;;0.98;88.25;99789.94;1623990;87;21082;-77
2022/11/29 08:23:34;;;;;;;30.70;13.03;;;;;;;1.04;88.14;99789.23;1627931;87;21055;-77
2022/11/29 08:26:03;;;;;;;45.55;15.75;;;;;;;1.10;87.94;99784.25;1622075;87;21051;-76
2022/11/29 08:28:30;;;;;;;37.08;15.10;;;;;;;1.12;87.67;99781.31;1614181;87;21040;-77
2022/11/29 08:31:08;;;;;;;43.78;18.37;;;;;;;1.18;87.81;99777.61;1625209;87;21067;-78
2022/11/29 08:33:38;;;;;;;34.27;14.23;;;;;;;1.25;88.10;99774.77;1614772;87;20995;-78
2022/11/29 08:36:18;;;;;;;37.10;13.72;;;;;;;1.32;87.75;99771.10;1625319;87;21028;-77
2022/11/29 08:38:46;;;;;;;32.90;12.78;;;;;;;1.39;87.70;99766.59;1621752;87;21027;-77
2022/11/29 08:41:16;;;;;;;32.75;13.05;;;;;;;1.46;87.45;99767.58;1625130;87;21610;-78
2022/11/29 08:43:44;;;;;;;34.95;14.40;;;;;;;1.56;87.30;99772.49;1630936;87;21012;-77
2022/11/29 08:46:12;;;;;;;28.62;12.03;;;;;;;1.54;87.19;99767.33;1625424;87;21043;-78
2022/11/29 08:48:39;;;;;;;33.90;13.13;;;;;;;1.62;87.18;99768.78;1622024;87;21961;-77
2022/11/29 08:51:07;;;;;;;35.58;13.32;;;;;;;1.69;87.46;99767.20;1615220;87;21579;-77
2022/11/29 08:53:40;;;;;;;37.05;13.90;;;;;;;1.78;87.21;99754.16;1625042;87;21554;-77
2022/11/29 08:56:15;;;;;;;30.72;13.90;;;;;;;1.83;87.12;99753.39;1625801;87;21000;-78
2022/11/29 08:58:43;;;;;;;42.43;13.70;;;;;;;1.92;86.97;99757.44;1627532;85;21111;-78
2022/11/29 09:01:18;;;;;;;33.35;13.13;;;;;;;1.97;86.61;99757.13;1662569;85;21010;-78
2022/11/29 09:04:05;;;;;;;28.10;12.23;;;;;;;2.05;86.92;99747.88;1624031;86;20936;-78
2022/11/29 09:06:43;;;;;;;29.18;12.40;;;;;;;2.14;86.87;99745.91;1660017;85;21012;-79
2022/11/29 09:09:10;;;;;;;36.33;13.95;;;;;;;2.22;86.64;99743.48;1632730;86;20987;-78
2022/11/29 09:11:38;;;;;;;27.75;12.07;;;;;;;2.32;86.65;99745.38;1634239;86;21034;-78
2022/11/29 09:14:09;;;;;;;29.15;12.20;;;;;;;2.39;86.35;99749.37;1646988;84;21120;-77
2022/11/29 09:16:37;;;;;;;34.40;12.13;;;;;;;2.47;86.31;99749.52;1618162;86;21065;-78
2022/11/29 09:19:05;;;;;;;28.32;12.18;;;;;;;2.52;85.96;99747.88;1628997;86;21052;-78
2022/11/29 09:21:35;;;;;;;39.63;12.95;;;;;;;2.61;85.70;99752.73;1632627;85;21045;-77
2022/11/29 09:24:05;;;;;;;34.92;13.13;;;;;;;2.69;86.12;99745.62;1638886;86;20979;-78
2022/11/29 09:26:36;;;;;;;32.45;12.50;;;;;;;2.81;85.67;99737.70;1631822;86;21032;-78
2022/11/29 09:29:06;;;;;;;31.25;12.23;;;;;;;2.87;85.42;99740.36;1658086;85;21037;-78
2022/11/29 09:31:34;;;;;;;31.05;13.60;;;;;;;2.95;85.89;99734.49;1631476;86;21010;-77
2022/11/29 09:34:02;;;;;;;33.48;13.40;;;;;;;3.06;85.35;99724.80;1659362;85;21047;-77
2022/11/29 09:36:30;;;;;;;35.52;12.43;;;;;;;3.16;85.44;99737.83;1658460;85;21027;-77
2022/11/29 09:39:01;;;;;;;29.92;12.53;;;;;;;3.32;85.79;99736.75;1639321;86;21029;-78
2022/11/29 09:41:49;;;;;;;34.03;12.88;;;;;;;3.37;85.25;99739.83;1659245;85;21285;-78
2022/11/29 09:44:48;;;;;;;34.00;13.00;;;;;;;3.50;85.33;99720.72;1633794;86;21045;-78
2022/11/29 09:47:27;;;;;;;29.80;12.93;;;;;;;3.62;84.83;99717.45;1655695;85;21649;-77
2022/11/29 09:50:23;;;;;;;28.52;11.43;;;;;;;3.70;84.40;99711.58;1657983;85;21074;-77
2022/11/29 09:53:05;;;;;;;26.37;11.60;;;;;;;3.74;83.78;99716.31;1667720;85;21058;-77
2022/11/29 09:55:56;;;;;;;30.15;13.72;;;;;;;3.80;82.74;99721.56;1643216;85;21773;-77
2022/11/29 09:58:32;;;;;;;31.37;12.35;;;;;;;3.94;83.51;99712.29;1654942;85;21063;-77
2022/11/29 10:01:07;;;;;;;25.85;12.20;;;;;;;3.97;81.63;99712.31;1659560;85;21038;-78
2022/11/29 10:03:45;;;;;;;24.98;11.80;;;;;;;4.09;82.90;99716.73;1658708;85;21360;-79
2022/11/29 10:06:26;;;;;;;24.75;11.10;;;;;;;4.28;83.37;99722.09;1649906;85;21055;-78
2022/11/29 10:09:09;;;;;;;28.32;11.60;;;;;;;4.39;83.01;99713.61;1652423;85;21046;-78
2022/11/29 10:11:51;;;;;;;20.23;9.93;;;;;;;4.61;80.98;99706.52;1650989;85;21566;-77
2022/11/29 10:14:51;;;;;;;28.40;11.00;;;;;;;4.61;80.98;99706.52;1659337;85;21462;-78
2022/11/29 10:17:42;;;;;;;23.52;9.45;;;;;;;4.63;81.10;99710.83;1656698;85;21032;-77
2022/11/29 10:20:15;;;;;;;20.57;9.50;;;;;;;4.80;80.49;99704.55;1659038;85;21031;-78
2022/11/29 10:23:21;;;;;;;22.20;10.20;;;;;;;4.85;78.94;99710.58;1659770;85;21059;-79
2022/11/29 10:25:53;;;;;;;29.12;10.45;;;;;;;4.90;80.08;99714.06;1654824;85;21035;-78
2022/11/29 10:28:29;;;;;;;20.32;9.05;;;;;;;4.97;78.76;99707.23;1656609;85;21067;-78
2022/11/29 10:31:26;;;;;;;19.37;8.50;;;;;;;5.12;79.39;99709.07;1657622;85;21130;-77
2022/11/29 10:33:55;;;;;;;16.23;8.08;;;;;;;5.11;78.52;99690.58;1633689;86;21547;-78
2022/11/29 10:36:53;;;;;;;19.00;8.18;;;;;;;5.12;76.21;99694.89;1622291;86;21384;-78
2022/11/29 10:39:33;;;;;;;17.90;8.43;;;;;;;5.20;76.48;99680.34;1636554;86;21067;-79
2022/11/29 10:42:47;;;;;;;17.30;8.33;;;;;;;5.24;76.74;99671.77;1638623;86;21051;-77
2022/11/29 10:44:33;;;;;;;18.35;8.75;;;;;;;5.32;77.36;99670.09;1636448;86;21073;-79
2022/11/29 10:47:04;;;;;;;22.40;9.83;;;;;;;5.41;75.18;99669.26;1638173;86;21071;-79
2022/11/29 10:49:34;;;;;;;21.33;8.10;;;;;;;5.53;76.34;99673.62;1634953;86;21079;-77
2022/11/29 10:52:02;;;;;;;20.90;8.95;;;;;;;5.60;75.92;99670.22;1643965;86;21067;-78
2022/11/29 10:54:40;;;;;;;20.43;8.93;;;;;;;5.65;73.71;99670.23;1638699;86;21056;-78
2022/11/29 10:57:20;;;;;;;16.85;7.65;;;;;;;5.79;76.73;99669.88;1636835;86;21054;-78
2022/11/29 11:00:05;;;;;;;18.80;8.28;;;;;;;5.81;72.97;99666.88;1640535;86;21109;-78
2022/11/29 11:02:34;;;;;;;21.35;9.53;;;;;;;5.86;74.05;99670.75;1634350;86;21515;-78
2022/11/29 11:05:06;;;;;;;16.90;8.23;;;;;;;5.94;74.85;99667.76;1639070;86;21063;-78
2022/11/29 11:07:35;;;;;;;17.07;8.55;;;;;;;5.93;72.30;99662.19;1639033;86;21029;-78
2022/11/29 11:10:20;;;;;;;21.85;9.03;;;;;;;5.97;73.75;99661.36;1637874;85;21079;-78
2022/11/29 11:13:04;;;;;;;21.97;9.38;;;;;;;6.03;75.69;99666.53;1641587;85;21894;-78
2022/11/29 11:15:33;;;;;;;16.23;8.28;;;;;;;6.05;71.35;99659.66;1635803;86;21054;-78
2022/11/29 11:18:09;;;;;;;19.62;8.83;;;;;;;6.17;74.25;99649.35;1637300;86;21609;-78
2022/11/29 11:20:41;;;;;;;15.95;8.80;;;;;;;6.24;73.50;99654.52;1642089;86;21953;-78
2022/11/29 11:23:26;;;;;;;21.90;8.10;;;;;;;6.27;70.76;99654.10;1638326;86;20998;-77
2022/11/29 11:26:07;;;;;;;17.52;8.53;;;;;;;6.31;73.36;99637.75;1634760;86;21044;-77
2022/11/29 11:28:58;;;;;;;19.90;9.05;;;;;;;6.43;74.27;99634.31;1637224;86;20955;-77
2022/11/29 11:31:39;;;;;;;15.88;8.15;;;;;;;6.57;73.09;99641.63;1636714;86;21880;-77
2022/11/29 11:34:30;;;;;;;19.92;8.40;;;;;;;6.69;71.63;99644.64;1653730;85;21004;-77
2022/11/29 11:37:23;;;;;;;15.40;7.95;;;;;;;6.75;71.68;99647.66;1654611;85;21989;-77
2022/11/29 11:39:56;;;;;;;17.80;7.33;;;;;;;6.86;72.26;99642.47;1657033;85;20996;-77
2022/11/29 11:42:37;;;;;;;21.10;7.60;;;;;;;6.99;71.45;99635.57;1658090;85;21027;-79
2022/11/29 11:45:16;;;;;;;17.20;6.97;;;;;;;7.16;71.37;99638.95;1664455;84;20971;-76
2022/11/29 11:47:48;;;;;;;15.43;7.37;;;;;;;7.35;71.65;99638.05;1636856;86;21470;-77
2022/11/29 11:50:50;;;;;;;14.38;6.72;;;;;;;7.55;70.33;99637.97;1661108;85;21067;-78
2022/11/29 11:53:35;;;;;;;18.70;6.72;;;;;;;7.81;67.06;99640.02;1654928;85;21187;-76
2022/11/29 11:56:09;;;;;;;16.20;7.08;;;;;;;7.96;68.51;99630.44;1656612;85;21782;-77
2022/11/29 11:58:50;;;;;;;15.65;7.35;;;;;;;8.22;68.70;99632.00;1652821;85;21452;-77
2022/11/29 12:01:38;;;;;;;15.13;7.22;;;;;;;8.54;68.63;99634.38;1658059;85;21561;-77
2022/11/29 12:04:22;;;;;;;13.60;6.95;;;;;;;8.71;67.53;99642.02;1626259;86;21032;-78
2022/11/29 12:07:00;;;;;;;14.80;6.55;;;;;;;8.80;63.87;99635.03;1655387;85;21708;-78
2022/11/29 12:09:43;;;;;;;14.03;6.78;;;;;;;8.79;65.05;99641.08;1652761;85;21050;-76
2022/11/29 12:12:25;;;;;;;14.85;6.70;;;;;;;8.84;66.71;99638.87;1643795;85;21531;-77
2022/11/29 12:15:06;;;;;;;16.17;7.42;;;;;;;9.05;67.00;99638.23;1668546;85;21090;-78
2022/11/29 12:18:03;;;;;;;20.48;8.05;;;;;;;9.50;66.48;99640.75;1649000;85;21026;-79
2022/11/29 12:20:45;;;;;;;17.92;7.85;;;;;;;9.54;64.10;99637.23;1660742;85;21082;-78
2022/11/29 12:23:36;;;;;;;18.80;8.73;;;;;;;9.25;60.84;99642.79;1651293;84;21568;-78
2022/11/29 12:26:38;;;;;;;18.25;7.83;;;;;;;9.09;62.66;99629.54;1661472;85;21410;-78